Time;durP1;ratioP1;P1;durP2;ratioP2;P2;SDS_P1;SDS_P2;PMS_P1;PMS_P2;Temp;Humidity;BMP_temperature;BMP_pressure;BME280_temperature;BME280_humidity;BME280_pressure;Samples;Min_cycle;Max_cycle;Signal;HPM_P1;HPM_P2
2024/03/16 00:00:19;;;;;;;;;30.00;22.00;;;;;6.08;82.75;100135.96;111555;254;40974;-54
2024/03/16 00:03:13;;;;;;;;;25.67;19.00;;;;;6.08;82.96;100132.65;111421;254;40234;-54
2024/03/16 00:05:47;;;;;;;;;25.67;19.00;;;;;6.09;82.92;100133.62;110569;242;716866;-52
2024/03/16 00:08:24;;;;;;;;;21.00;15.75;;;;;6.10;83.14;100131.52;111448;255;39463;-52
2024/03/16 00:11:05;;;;;;;;;31.00;23.00;;;;;6.09;83.00;100125.31;111298;255;161371;-50
2024/03/16 00:13:39;;;;;;;;;31.00;19.00;;;;;6.10;83.01;100122.79;111433;255;40994;-49
2024/03/16 00:16:13;;;;;;;;;30.25;22.00;;;;;6.10;83.21;100118.51;111382;240;161547;-53
2024/03/16 00:18:48;;;;;;;;;43.00;31.00;;;;;6.06;83.15;100117.67;111227;256;40315;-53
2024/03/16 00:21:23;;;;;;;;;23.50;17.25;;;;;6.05;83.05;100119.58;111513;255;40527;-51
2024/03/16 00:23:59;;;;;;;;;25.33;17.67;;;;;6.03;83.04;100119.91;111375;241;160658;-50
2024/03/16 00:26:42;;;;;;;;;29.00;21.00;;;;;5.99;83.01;100122.94;111510;255;39686;-50
2024/03/16 00:29:24;;;;;;;;;23.50;18.00;;;;;5.93;82.96;100115.73;111270;241;160761;-50
2024/03/16 00:32:01;;;;;;;;;32.33;21.00;;;;;5.87;83.12;100117.35;111519;255;39260;-50
2024/03/16 00:34:36;;;;;;;;;23.00;15.75;;;;;5.80;83.36;100119.66;111306;243;160740;-51
2024/03/16 00:37:14;;;;;;;;;19.50;14.25;;;;;5.78;83.13;100114.06;111487;255;39750;-51
2024/03/16 00:39:51;;;;;;;;;34.25;23.00;;;;;5.75;83.45;100111.92;111481;255;40331;-50
2024/03/16 00:42:26;;;;;;;;;31.50;24.00;;;;;5.71;83.58;100110.36;111479;254;39636;-50
2024/03/16 00:45:03;;;;;;;;;25.00;17.67;;;;;5.69;83.52;100107.24;111453;254;39535;-50
2024/03/16 00:47:43;;;;;;;;;31.75;23.00;;;;;5.68;83.82;100109.42;111309;241;161883;-53
2024/03/16 00:50:19;;;;;;;;;30.00;20.00;;;;;5.68;83.74;100108.35;111400;256;40413;-53
2024/03/16 00:52:56;;;;;;;;;34.00;24.00;;;;;5.66;83.84;100104.36;111304;241;161327;-50
2024/03/16 00:55:34;;;;;;;;;26.00;20.00;;;;;5.64;84.14;100105.73;111392;256;39893;-50
2024/03/16 00:58:15;;;;;;;;;29.00;22.00;;;;;5.64;84.10;100098.96;111314;241;161694;-51
2024/03/16 01:00:55;;;;;;;;;24.33;19.33;;;;;5.64;84.06;100098.42;111422;255;39700;-51
2024/03/16 01:03:38;;;;;;;;;20.00;16.00;;;;;5.63;84.09;100092.97;111430;255;40056;-50
2024/03/16 01:06:17;;;;;;;;;30.75;22.50;;;;;5.64;84.45;100093.08;111326;240;161325;-53
2024/03/16 01:08:55;;;;;;;;;36.00;28.00;;;;;5.69;84.41;100088.56;111438;255;39841;-53
2024/03/16 01:11:37;;;;;;;;;41.67;27.67;;;;;5.70;84.53;100083.00;111395;241;161663;-51
2024/03/16 01:14:23;;;;;;;;;32.25;24.50;;;;;5.71;84.43;100085.91;111459;255;40249;-50
2024/03/16 01:16:57;;;;;;;;;31.75;23.75;;;;;5.66;84.43;100078.91;111368;255;161176;-50
2024/03/16 01:19:35;;;;;;;;;27.25;18.00;;;;;5.67;84.49;100079.09;111493;255;39995;-50
2024/03/16 01:22:12;;;;;;;;;34.67;24.00;;;;;5.62;84.63;100082.02;111397;241;160682;-54
2024/03/16 01:24:50;;;;;;;;;33.75;25.50;;;;;5.61;84.60;100077.72;111549;255;39854;-55
2024/03/16 01:27:26;;;;;;;;;20.33;14.33;;;;;5.60;84.85;100073.36;111552;255;41572;-51
2024/03/16 01:30:03;;;;;;;;;29.00;23.00;;;;;5.60;84.94;100072.48;111333;255;161152;-50
2024/03/16 01:32:40;;;;;;;;;25.00;18.00;;;;;5.62;84.90;100067.08;111406;255;40412;-49
2024/03/16 01:35:15;;;;;;;;;22.50;16.75;;;;;5.63;85.06;100064.83;111372;241;161505;-50
2024/03/16 01:37:52;;;;;;;;;32.50;23.50;;;;;5.66;84.91;100060.59;111483;255;39700;-53
2024/03/16 01:40:29;;;;;;;;;34.25;25.75;;;;;5.69;85.09;100056.84;111371;240;161511;-52
2024/03/16 01:43:05;;;;;;;;;26.33;20.00;;;;;5.71;85.29;100056.93;111441;255;39092;-54
2024/03/16 01:45:41;;;;;;;;;21.75;18.00;;;;;5.73;85.12;100057.81;111454;255;40850;-53
2024/03/16 01:48:17;;;;;;;;;29.00;22.00;;;;;5.74;85.15;100060.86;111486;241;161425;-50
2024/03/16 01:50:54;;;;;;;;;32.33;24.00;;;;;5.72;85.26;100059.66;111444;255;40468;-50
2024/03/16 01:53:32;;;;;;;;;28.50;23.00;;;;;5.76;85.34;100061.70;111332;240;161601;-50
2024/03/16 01:56:09;;;;;;;;;37.00;28.00;;;;;5.70;85.57;100055.67;111464;255;39148;-50
2024/03/16 01:58:48;;;;;;;;;28.25;21.00;;;;;5.68;85.39;100059.59;111332;242;161634;-49
2024/03/16 02:01:25;;;;;;;;;32.00;24.00;;;;;5.67;85.44;100061.13;111529;255;39482;-50
2024/03/16 02:04:09;;;;;;;;;31.33;22.00;;;;;5.63;85.38;100057.98;111316;240;161095;-50
2024/03/16 02:06:51;;;;;;;;;28.25;17.00;;;;;5.59;85.70;100059.40;111466;255;41200;-53
2024/03/16 02:09:30;;;;;;;;;37.00;26.00;;;;;5.57;85.57;100060.67;111525;255;41088;-53
2024/03/16 02:12:11;;;;;;;;;35.67;26.67;;;;;5.51;85.55;100058.48;111480;249;160990;-49
2024/03/16 02:14:48;;;;;;;;;22.33;16.00;;;;;5.42;85.52;100056.90;111472;255;40118;-49
2024/03/16 02:17:25;;;;;;;;;33.00;25.00;;;;;5.37;85.55;100059.58;111333;242;161960;-52
2024/03/16 02:20:04;;;;;;;;;32.25;24.00;;;;;5.29;85.80;100057.34;111435;255;39276;-49
2024/03/16 02:22:41;;;;;;;;;27.50;20.50;;;;;5.28;86.03;100058.72;111358;255;161416;-50
2024/03/16 02:25:20;;;;;;;;;24.00;18.00;;;;;5.31;86.03;100055.38;111449;255;39542;-49
2024/03/16 02:27:56;;;;;;;;;29.00;21.00;;;;;5.31;86.04;100052.21;111456;255;39703;-53
2024/03/16 02:30:30;;;;;;;;;32.33;24.33;;;;;5.33;86.19;100050.60;111161;255;41012;-53
2024/03/16 02:33:35;;;;;;;;;24.50;18.25;;;;;5.34;86.19;100046.69;111467;255;39289;-50
2024/03/16 02:36:18;;;;;;;;;25.50;20.00;;;;;5.31;86.23;100047.55;111403;241;161561;-52
2024/03/16 02:39:00;;;;;;;;;24.00;18.75;;;;;5.28;86.40;100048.05;111432;255;39110;-53
2024/03/16 02:41:37;;;;;;;;;27.00;20.67;;;;;5.27;86.53;100048.30;111239;241;161340;-53
2024/03/16 02:44:15;;;;;;;;;23.00;18.00;;;;;5.27;86.93;100046.02;111432;255;41321;-53
2024/03/16 02:46:54;;;;;;;;;29.50;21.50;;;;;5.27;86.55;100046.93;111303;241;161283;-52
2024/03/16 02:49:32;;;;;;;;;30.00;22.00;;;;;5.26;86.62;100046.33;111497;255;38944;-52
2024/03/16 02:52:09;;;;;;;;;27.50;18.25;;;;;5.25;86.57;100046.21;111385;242;162093;-52
2024/03/16 02:54:47;;;;;;;;;34.50;22.00;;;;;5.22;86.79;100040.63;111528;255;39164;-51
2024/03/16 02:57:33;;;;;;;;;26.00;18.00;;;;;5.23;86.72;100040.59;111502;255;39243;-50
2024/03/16 03:00:12;;;;;;;;;27.00;18.50;;;;;5.21;87.13;100046.45;111436;241;161400;-49
2024/03/16 03:02:49;;;;;;;;;30.33;22.00;;;;;5.18;87.07;100047.48;111519;255;39530;-50
2024/03/16 03:05:31;;;;;;;;;21.67;18.00;;;;;5.20;87.12;100046.82;111370;255;161670;-50
2024/03/16 03:08:10;;;;;;;;;24.50;18.50;;;;;5.16;87.13;100043.13;111478;255;39607;-50
2024/03/16 03:10:45;;;;;;;;;25.00;20.00;;;;;5.18;87.24;100045.20;111391;241;162161;-50
2024/03/16 03:13:25;;;;;;;;;25.25;18.00;;;;;5.19;87.41;100045.60;111490;255;40151;-50
2024/03/16 03:16:03;;;;;;;;;25.00;19.00;;;;;5.15;87.36;100044.46;111330;240;161851;-53
2024/03/16 03:18:41;;;;;;;;;32.25;22.25;;;;;5.14;87.46;100043.52;111403;254;39428;-53
2024/03/16 03:21:21;;;;;;;;;28.25;22.00;;;;;5.11;87.51;100038.86;111419;255;40803;-54
2024/03/16 03:23:54;;;;;;;;;29.00;20.00;;;;;5.08;87.61;100037.61;111345;255;161767;-54
2024/03/16 03:26:30;;;;;;;;;25.00;19.00;;;;;5.05;87.49;100040.62;111425;256;40139;-50
2024/03/16 03:29:12;;;;;;;;;24.25;19.75;;;;;5.05;87.99;100043.20;111302;241;161724;-50
2024/03/16 03:31:56;;;;;;;;;33.33;25.00;;;;;5.07;87.97;100045.71;111432;255;39871;-52
2024/03/16 03:34:33;;;;;;;;;27.00;20.67;;;;;5.07;87.72;100043.02;111258;243;161719;-51
2024/03/16 03:37:12;;;;;;;;;26.50;19.00;;;;;5.06;87.76;100040.23;111407;255;39761;-54
2024/03/16 03:39:52;;;;;;;;;28.25;21.00;;;;;5.05;87.95;100031.08;111420;256;40718;-53
2024/03/16 03:42:33;;;;;;;;;20.00;16.00;;;;;5.06;88.22;100033.30;111280;256;40096;-51
2024/03/16 03:45:24;;;;;;;;;30.50;21.50;;;;;5.10;88.03;100032.34;111447;256;40420;-53
2024/03/16 03:48:14;;;;;;;;;27.50;19.50;;;;;5.18;88.14;100028.27;111385;241;161664;-54
2024/03/16 03:50:55;;;;;;;;;31.75;23.25;;;;;5.27;88.49;100029.05;111547;256;39978;-51
2024/03/16 03:53:37;;;;;;;;;29.00;20.00;;;;;5.35;88.46;100026.27;111263;241;161501;-51
2024/03/16 03:56:15;;;;;;;;;35.67;26.00;;;;;5.42;88.28;100027.34;111495;256;41402;-53
2024/03/16 03:58:55;;;;;;;;;37.00;25.33;;;;;5.44;88.42;100028.14;111294;243;161486;-50
2024/03/16 04:01:30;;;;;;;;;29.75;22.00;;;;;5.49;88.64;100032.73;111366;256;39670;-53
2024/03/16 04:04:07;;;;;;;;;28.00;21.00;;;;;5.56;88.46;100033.45;111337;256;161828;-51
2024/03/16 04:06:44;;;;;;;;;28.67;22.33;;;;;5.58;88.45;100032.52;111257;256;39667;-53
2024/03/16 04:09:19;;;;;;;;;26.50;20.25;;;;;5.57;88.18;100032.74;111428;256;40695;-54
2024/03/16 04:11:57;;;;;;;;;38.00;27.33;;;;;5.59;88.04;100040.22;111097;243;161121;-50
2024/03/16 04:14:37;;;;;;;;;29.50;21.50;;;;;5.59;88.27;100039.48;111424;256;39527;-54
2024/03/16 04:17:12;;;;;;;;;42.00;27.00;;;;;5.61;88.23;100038.54;111178;246;160853;-53
2024/03/16 04:19:52;;;;;;;;;40.75;28.50;;;;;5.62;88.20;100037.41;111304;256;40700;-50
2024/03/16 04:22:34;;;;;;;;;46.00;31.00;;;;;5.63;88.11;100032.28;111260;243;161301;-51
2024/03/16 04:25:12;;;;;;;;;28.00;20.00;;;;;5.58;88.37;100030.54;111264;256;40284;-51
2024/03/16 04:27:47;;;;;;;;;25.50;18.50;;;;;5.58;88.20;100027.52;111479;256;39151;-54
2024/03/16 04:30:22;;;;;;;;;40.33;26.67;;;;;5.54;88.13;100025.77;111152;241;162232;-53
2024/03/16 04:33:01;;;;;;;;;24.00;18.00;;;;;5.49;88.18;100023.13;111498;256;39050;-49
2024/03/16 04:35:38;;;;;;;;;30.00;23.00;;;;;5.48;88.57;100025.80;111201;243;161480;-49
2024/03/16 04:38:17;;;;;;;;;42.00;29.00;;;;;5.48;88.46;100023.40;111441;256;39053;-50
2024/03/16 04:40:58;;;;;;;;;28.00;20.67;;;;;5.52;88.63;100019.95;111256;241;161482;-50
2024/03/16 04:43:33;;;;;;;;;31.00;23.00;;;;;5.56;88.66;100019.34;111327;256;40876;-49
2024/03/16 04:46:09;;;;;;;;;29.00;21.33;;;;;5.64;88.77;100017.20;111093;243;161787;-50
2024/03/16 04:48:42;;;;;;;;;38.25;29.00;;;;;5.73;88.67;100022.98;111208;256;40867;-52
2024/03/16 04:51:16;;;;;;;;;30.67;23.33;;;;;5.79;88.69;100025.02;111446;256;39129;-50
2024/03/16 04:53:51;;;;;;;;;35.00;24.00;;;;;5.83;88.68;100026.17;111101;241;161571;-52
2024/03/16 04:56:34;;;;;;;;;23.50;18.25;;;;;5.85;88.85;100024.64;111405;256;40655;-50
2024/03/16 04:59:12;;;;;;;;;30.00;22.00;;;;;5.92;88.86;100027.09;111178;243;161319;-52
2024/03/16 05:01:51;;;;;;;;;33.75;24.75;;;;;6.01;88.80;100028.19;111329;256;39461;-50
2024/03/16 05:04:26;;;;;;;;;38.00;28.00;;;;;6.05;88.74;100030.56;111277;241;162061;-53
2024/03/16 05:07:00;;;;;;;;;33.75;26.00;;;;;6.11;88.74;100033.48;111282;256;39853;-50
2024/03/16 05:09:35;;;;;;;;;32.33;23.67;;;;;6.13;88.57;100032.27;111472;256;40546;-52
2024/03/16 05:12:09;;;;;;;;;29.50;22.75;;;;;6.18;88.57;100032.29;111132;256;160913;-50
2024/03/16 05:14:43;;;;;;;;;38.75;27.00;;;;;6.20;88.33;100035.08;111507;256;39407;-49
2024/03/16 05:17:21;;;;;;;;;39.00;29.00;;;;;6.20;88.35;100035.60;111222;241;161236;-50
2024/03/16 05:19:58;;;;;;;;;26.00;20.00;;;;;6.19;88.38;100035.71;111401;256;41100;-53
2024/03/16 05:22:32;;;;;;;;;28.00;22.00;;;;;6.18;88.22;100035.97;111245;243;162534;-50
2024/03/16 05:25:07;;;;;;;;;37.25;27.25;;;;;6.21;88.14;100034.05;111265;255;40820;-50
2024/03/16 05:27:49;;;;;;;;;31.00;21.00;;;;;6.22;88.36;100035.64;111482;256;39896;-54
2024/03/16 05:30:25;;;;;;;;;33.00;22.67;;;;;6.27;88.31;100043.46;111447;243;40007;-53
2024/03/16 05:33:01;;;;;;;;;42.00;31.00;;;;;6.27;88.22;100037.10;111432;256;39659;-51
2024/03/16 05:35:40;;;;;;;;;39.50;29.25;;;;;6.30;88.30;100045.51;111112;241;161564;-51
2024/03/16 05:38:23;;;;;;;;;31.50;23.50;;;;;6.38;88.23;100042.14;111380;256;39459;-54
2024/03/16 05:41:01;;;;;;;;;30.67;22.67;;;;;6.40;88.24;100043.74;111233;243;161694;-51
2024/03/16 05:43:37;;;;;;;;;42.00;26.00;;;;;6.46;88.16;100045.61;111300;256;39808;-50
2024/03/16 05:46:18;;;;;;;;;31.50;23.25;;;;;6.46;88.20;100045.34;111304;241;161830;-51
2024/03/16 05:48:54;;;;;;;;;38.00;27.00;;;;;6.51;88.03;100049.81;111221;256;39651;-51
2024/03/16 05:51:36;;;;;;;;;29.50;22.50;;;;;6.58;88.15;100050.33;111455;256;41026;-54
2024/03/16 05:54:14;;;;;;;;;43.33;30.00;;;;;6.61;88.02;100042.60;111070;242;162362;-54
2024/03/16 05:56:50;;;;;;;;;41.00;30.00;;;;;6.66;87.86;100045.11;111451;256;40219;-54
2024/03/16 05:59:25;;;;;;;;;39.00;28.00;;;;;6.68;87.71;100048.05;111169;256;160732;-51
2024/03/16 06:02:08;;;;;;;;;33.00;25.00;;;;;6.67;87.88;100045.89;111483;256;39769;-50
2024/03/16 06:04:44;;;;;;;;;28.00;21.50;;;;;6.71;87.82;100049.48;111282;243;162172;-49
2024/03/16 06:07:23;;;;;;;;;37.33;27.00;;;;;6.78;87.93;100045.15;111364;256;39890;-54
2024/03/16 06:10:03;;;;;;;;;33.00;25.00;;;;;6.89;87.75;100045.30;111451;256;38942;-54
2024/03/16 06:12:40;;;;;;;;;32.75;24.00;;;;;7.03;87.84;100044.36;111433;255;39865;-50
2024/03/16 06:15:17;;;;;;;;;39.33;27.00;;;;;7.15;87.89;100046.58;111437;255;39210;-50
2024/03/16 06:17:51;;;;;;;;;45.00;33.00;;;;;7.28;88.01;100046.02;111274;241;161565;-54
2024/03/16 06:20:29;;;;;;;;;43.00;31.00;;;;;7.47;87.85;100043.95;111404;255;39575;-53
2024/03/16 06:23:06;;;;;;;;;39.00;28.67;;;;;7.64;87.68;100044.77;111271;243;161080;-54
2024/03/16 06:25:46;;;;;;;;;44.00;30.67;;;;;7.76;87.58;100042.08;111307;256;39778;-51
2024/03/16 06:28:24;;;;;;;;;47.33;34.00;;;;;7.89;87.52;100038.83;111251;243;161226;-54
2024/03/16 06:31:10;;;;;;;;;42.00;29.67;;;;;7.98;87.39;100041.01;111244;255;39327;-50
2024/03/16 06:33:52;;;;;;;;;43.67;31.00;;;;;8.06;87.12;100043.34;111170;256;38282;-50
2024/03/16 06:36:36;;;;;;;;;40.33;30.33;;;;;8.13;86.95;100042.51;111471;243;41995;-50
2024/03/16 06:39:12;;;;;;;;;38.50;28.00;;;;;8.15;86.77;100044.94;111396;255;40736;-50
2024/03/16 06:41:49;;;;;;;;;42.33;30.33;;;;;8.17;86.77;100050.33;111339;241;161616;-53
2024/03/16 06:44:27;;;;;;;;;33.50;25.00;;;;;8.21;86.72;100050.67;111423;256;40863;-53
2024/03/16 06:47:09;;;;;;;;;31.00;24.00;;;;;8.27;86.56;100056.70;111268;243;161777;-53
2024/03/16 06:49:44;;;;;;;;;44.00;30.00;;;;;8.30;86.56;100061.44;111371;256;39807;-53
2024/03/16 06:52:24;;;;;;;;;34.00;26.00;;;;;8.36;86.44;100063.30;111337;243;162014;-50
2024/03/16 06:55:05;;;;;;;;;38.67;27.00;;;;;8.38;86.37;100067.35;111249;256;39415;-49
2024/03/16 06:57:45;;;;;;;;;39.33;29.67;;;;;8.44;86.53;100070.42;111507;255;39529;-50
2024/03/16 07:00:22;;;;;;;;;42.00;31.00;;;;;8.53;86.37;100067.30;111094;241;161341;-49
2024/03/16 07:03:02;;;;;;;;;40.33;29.00;;;;;8.54;86.43;100070.29;111240;256;40471;-50
2024/03/16 07:05:44;;;;;;;;;39.75;30.75;;;;;8.54;86.40;100076.55;111163;256;162296;-50
2024/03/16 07:08:25;;;;;;;;;32.00;24.00;;;;;8.59;86.26;100080.77;111212;256;40174;-50
2024/03/16 07:11:01;;;;;;;;;41.00;29.00;;;;;8.58;86.34;100084.14;111080;243;160764;-54
2024/03/16 07:13:40;;;;;;;;;36.25;27.25;;;;;8.58;86.31;100088.55;111382;255;39918;-54
2024/03/16 07:16:19;;;;;;;;;41.00;31.00;;;;;8.61;86.47;100093.91;111370;241;162333;-50
2024/03/16 07:18:58;;;;;;;;;28.00;19.00;;;;;8.63;86.41;100091.80;111387;256;39512;-51
2024/03/16 07:21:35;;;;;;;;;40.00;30.00;;;;;8.71;86.34;100092.73;111456;255;39251;-53
2024/03/16 07:24:10;;;;;;;;;43.00;30.00;;;;;8.78;86.28;100089.84;111109;243;161808;-53
2024/03/16 07:26:45;;;;;;;;;32.00;24.00;;;;;8.78;86.37;100095.71;111422;255;39361;-51
2024/03/16 07:29:23;;;;;;;;;40.50;30.00;;;;;8.84;86.32;100095.46;111199;243;161637;-52
2024/03/16 07:31:59;;;;;;;;;42.50;29.75;;;;;8.82;86.16;100097.81;111390;256;39766;-49
2024/03/16 07:34:39;;;;;;;;;42.50;30.50;;;;;8.83;86.12;100098.65;111295;244;161589;-49
2024/03/16 07:37:16;;;;;;;;;40.50;29.50;;;;;8.84;86.16;100100.40;111304;256;39983;-51
2024/03/16 07:39:50;;;;;;;;;38.00;29.00;;;;;8.87;86.23;100099.21;111225;256;39868;-50
2024/03/16 07:42:32;;;;;;;;;43.00;32.00;;;;;8.88;86.06;100100.34;111103;243;162069;-51
2024/03/16 07:45:09;;;;;;;;;41.00;28.00;;;;;8.89;86.18;100107.44;111463;256;39913;-50
2024/03/16 07:47:46;;;;;;;;;42.50;29.00;;;;;8.91;86.27;100105.15;111112;243;161140;-53
2024/03/16 07:50:25;;;;;;;;;40.50;30.00;;;;;8.96;86.24;100104.59;111379;256;40549;-53
2024/03/16 07:53:04;;;;;;;;;35.33;27.33;;;;;9.00;86.20;100103.45;111339;241;161744;-55
2024/03/16 07:55:41;;;;;;;;;38.00;29.00;;;;;9.06;86.29;100106.80;111455;256;40893;-53
2024/03/16 07:58:24;;;;;;;;;38.00;26.75;;;;;9.12;86.27;100109.45;111303;241;162159;-51
2024/03/16 08:00:59;;;;;;;;;31.00;23.00;;;;;9.15;86.43;100109.28;111386;256;39875;-51
2024/03/16 08:03:35;;;;;;;;;29.75;23.00;;;;;9.20;86.48;100113.09;110450;256;918738;-51
2024/03/16 08:06:09;;;;;;;;;34.00;25.00;;;;;9.28;86.52;100106.23;111152;243;161998;-55
2024/03/16 08:08:46;;;;;;;;;41.50;30.75;;;;;9.37;86.68;100110.31;111423;256;39615;-54
2024/03/16 08:11:24;;;;;;;;;44.33;33.00;;;;;9.45;86.65;100110.59;111111;244;160563;-54
2024/03/16 08:14:08;;;;;;;;;50.50;34.25;;;;;9.49;86.58;100106.66;111341;256;40544;-55
2024/03/16 08:16:44;;;;;;;;;47.67;33.67;;;;;9.49;86.66;100107.86;111298;241;161157;-53
2024/03/16 08:19:18;;;;;;;;;48.00;34.67;;;;;9.52;86.72;100113.29;111306;256;39471;-54
2024/03/16 08:21:54;;;;;;;;;44.67;32.33;;;;;9.53;86.77;100110.48;111491;256;41041;-54
2024/03/16 08:24:35;;;;;;;;;49.67;34.00;;;;;9.59;86.80;100109.95;111135;243;161347;-53
2024/03/16 08:27:14;;;;;;;;;44.00;32.00;;;;;9.61;87.20;100112.02;111244;256;39520;-51
2024/03/16 08:29:52;;;;;;;;;46.50;33.50;;;;;9.68;87.24;100105.83;111156;243;161864;-51
2024/03/16 08:32:30;;;;;;;;;42.00;31.00;;;;;9.80;87.36;100103.30;111480;256;40715;-55
2024/03/16 08:35:08;;;;;;;;;40.67;30.00;;;;;9.93;87.53;100104.52;111260;243;161848;-53
2024/03/16 08:37:49;;;;;;;;;42.75;33.00;;;;;10.06;87.51;100101.70;111418;256;39866;-51
2024/03/16 08:40:29;;;;;;;;;40.67;30.33;;;;;10.19;87.64;100103.55;111300;241;162588;-51
2024/03/16 08:43:07;;;;;;;;;49.25;35.00;;;;;10.31;87.81;100100.02;111306;256;39599;-53
2024/03/16 08:45:45;;;;;;;;;40.50;31.00;;;;;10.36;87.88;100101.34;111434;256;39630;-52
2024/03/16 08:48:22;;;;;;;;;40.25;28.25;;;;;10.36;88.02;100101.22;111092;256;161194;-53
2024/03/16 08:51:04;;;;;;;;;48.50;34.00;;;;;10.36;87.89;100102.16;111448;256;40380;-51
2024/03/16 08:53:43;;;;;;;;;46.67;32.33;;;;;10.38;88.27;100100.27;111139;241;161543;-54
2024/03/16 08:56:24;;;;;;;;;39.00;31.00;;;;;10.33;88.42;100096.29;111396;256;40150;-54
2024/03/16 08:59:03;;;;;;;;;44.00;30.00;;;;;10.31;88.68;100095.73;111205;243;162217;-52
2024/03/16 09:01:42;;;;;;;;;46.50;33.50;;;;;10.35;88.89;100094.67;111333;256;40746;-54
2024/03/16 09:04:20;;;;;;;;;38.00;30.00;;;;;10.43;88.95;100101.14;111294;256;163174;-55
2024/03/16 09:07:01;;;;;;;;;52.00;38.00;;;;;10.42;89.12;100100.34;111245;256;38956;-52
2024/03/16 09:09:35;;;;;;;;;41.00;30.00;;;;;10.52;89.58;100099.31;111441;256;39403;-50
2024/03/16 09:12:12;;;;;;;;;50.00;37.00;;;;;10.61;89.91;100097.58;111124;256;162104;-54
2024/03/16 09:14:46;;;;;;;;;46.50;35.00;;;;;10.75;90.06;100098.80;111463;256;39368;-54
2024/03/16 09:17:29;;;;;;;;;47.33;35.00;;;;;10.82;90.20;100102.59;111218;245;161884;-51
2024/03/16 09:20:07;;;;;;;;;45.75;34.00;;;;;10.88;90.28;100096.98;111363;256;39903;-50
2024/03/16 09:22:45;;;;;;;;;43.50;32.50;;;;;10.85;90.38;100099.75;111308;243;161915;-50
2024/03/16 09:25:31;;;;;;;;;40.50;30.50;;;;;10.81;90.57;100100.77;111262;256;40459;-51
2024/03/16 09:28:11;;;;;;;;;39.00;30.33;;;;;10.71;90.87;100098.54;111418;256;39152;-51
2024/03/16 09:30:52;;;;;;;;;40.50;29.50;;;;;10.67;91.01;100100.21;111216;256;39133;-55
2024/03/16 09:33:32;;;;;;;;;42.00;32.00;;;;;10.60;91.14;100102.07;111176;256;40216;-56
2024/03/16 09:36:09;;;;;;;;;41.67;31.33;;;;;10.58;91.16;100100.92;111165;241;161959;-55
2024/03/16 09:38:47;;;;;;;;;50.00;36.00;;;;;10.47;91.23;100102.75;111424;256;39180;-54
2024/03/16 09:41:29;;;;;;;;;45.00;34.00;;;;;10.43;91.66;100101.77;111179;243;162889;-52
2024/03/16 09:44:31;;;;;;;;;52.00;38.33;;;;;10.43;91.77;100098.48;111293;256;39402;-51
2024/03/16 09:47:13;;;;;;;;;48.50;37.50;;;;;10.49;92.25;100093.89;111283;242;162292;-51
2024/03/16 09:49:48;;;;;;;;;52.33;35.67;;;;;10.56;92.46;100089.60;111179;257;39863;-54
2024/03/16 09:52:23;;;;;;;;;58.00;42.00;;;;;10.68;92.75;100091.86;111048;244;162098;-53
2024/03/16 09:55:00;;;;;;;;;48.00;36.67;;;;;10.82;92.89;100095.23;111179;257;40352;-51
2024/03/16 09:57:39;;;;;;;;;45.00;33.00;;;;;10.95;92.87;100093.73;111217;257;39298;-51
2024/03/16 10:00:15;;;;;;;;;43.00;31.00;;;;;11.02;92.91;100095.15;111088;244;161586;-56
2024/03/16 10:02:50;;;;;;;;;42.50;32.50;;;;;11.02;93.48;100087.58;111180;257;39994;-54
2024/03/16 10:05:27;;;;;;;;;73.33;51.00;;;;;11.10;93.77;100083.55;111092;257;163105;-52
2024/03/16 10:08:00;;;;;;;;;61.25;43.75;;;;;11.20;93.88;100078.94;111191;257;39305;-52
2024/03/16 10:10:36;;;;;;;;;59.50;43.75;;;;;11.32;94.15;100081.44;111059;244;162032;-53
2024/03/16 10:13:17;;;;;;;;;47.75;36.00;;;;;11.52;94.50;100082.19;111152;257;39920;-53
2024/03/16 10:15:59;;;;;;;;;47.67;36.67;;;;;11.79;94.57;100087.74;111178;257;40717;-50
2024/03/16 10:18:38;;;;;;;;;43.00;32.67;;;;;12.06;94.78;100084.30;111064;244;161550;-50
2024/03/16 10:21:14;;;;;;;;;44.33;32.67;;;;;12.26;94.82;100083.61;111164;257;39975;-53
2024/03/16 10:23:53;;;;;;;;;43.00;31.00;;;;;12.45;94.75;100080.52;111052;244;161597;-54
2024/03/16 10:26:30;;;;;;;;;40.00;30.00;;;;;12.62;94.61;100080.71;111213;257;40614;-50
2024/03/16 10:29:11;;;;;;;;;49.67;36.33;;;;;12.73;94.40;100078.87;111054;257;161651;-50
2024/03/16 10:31:54;;;;;;;;;48.00;36.00;;;;;12.92;94.18;100080.92;111173;257;40273;-50
2024/03/16 10:34:34;;;;;;;;;45.50;34.50;;;;;13.03;94.00;100077.46;111094;257;161460;-51
2024/03/16 10:37:10;;;;;;;;;42.50;30.50;;;;;13.21;94.01;100087.66;111139;257;39438;-51
2024/03/16 10:39:47;;;;;;;;;44.75;35.00;;;;;13.44;93.55;100082.02;111145;257;40754;-50
2024/03/16 10:42:23;;;;;;;;;53.00;40.00;;;;;13.57;93.39;100082.30;111015;243;161752;-50
2024/03/16 10:44:59;;;;;;;;;46.50;35.00;;;;;13.74;93.51;100082.29;111184;257;39533;-50
2024/03/16 10:47:39;;;;;;;;;46.50;35.50;;;;;14.04;93.40;100075.04;111015;257;162592;-50
2024/03/16 10:50:14;;;;;;;;;51.50;38.00;;;;;14.45;93.44;100073.02;111219;257;40599;-50
2024/03/16 10:52:49;;;;;;;;;47.75;36.50;;;;;14.80;93.17;100073.16;111022;244;162889;-51
2024/03/16 10:55:29;;;;;;;;;49.75;38.00;;;;;15.04;92.78;100079.31;111209;257;39829;-53
2024/03/16 10:58:06;;;;;;;;;40.00;31.50;;;;;15.21;92.34;100080.64;111211;257;40242;-53
2024/03/16 11:00:50;;;;;;;;;42.00;32.33;;;;;15.29;91.34;100074.34;111287;258;40705;-50
2024/03/16 11:03:29;;;;;;;;;40.50;32.00;;;;;15.25;90.81;100077.27;111201;257;39574;-50
2024/03/16 11:06:10;;;;;;;;;43.00;32.00;;;;;15.23;90.26;100070.55;111164;243;161204;-54
2024/03/16 11:08:54;;;;;;;;;38.00;30.00;;;;;15.24;90.09;100066.52;111196;256;40920;-54
2024/03/16 11:11:32;;;;;;;;;39.00;30.00;;;;;15.33;89.71;100065.24;111075;243;161412;-52
2024/03/16 11:14:17;;;;;;;;;38.00;31.00;;;;;15.36;89.66;100064.95;111100;257;39720;-51
2024/03/16 11:16:54;;;;;;;;;40.00;31.00;;;;;15.42;89.43;100062.73;110984;243;161236;-50
2024/03/16 11:19:33;;;;;;;;;36.25;28.25;;;;;15.52;88.83;100068.21;111153;257;39953;-52
2024/03/16 11:22:14;;;;;;;;;38.00;29.25;;;;;15.54;88.51;100067.52;111184;256;40100;-53
2024/03/16 11:24:50;;;;;;;;;38.50;30.50;;;;;15.60;88.46;100064.89;111189;257;39716;-53
2024/03/16 11:27:31;;;;;;;;;38.33;29.67;;;;;15.68;87.85;100068.17;111136;257;40725;-50
2024/03/16 11:30:19;;;;;;;;;42.00;31.75;;;;;15.59;87.33;100069.45;111090;243;161196;-50
2024/03/16 11:33:13;;;;;;;;;42.67;33.33;;;;;15.70;87.66;100069.77;111162;256;39810;-50
2024/03/16 11:35:49;;;;;;;;;38.67;29.67;;;;;15.92;87.54;100067.69;111052;243;159833;-50
2024/03/16 11:38:32;;;;;;;;;42.00;31.67;;;;;16.08;87.17;100067.66;111157;257;39231;-49
2024/03/16 11:41:17;;;;;;;;;41.00;32.00;;;;;16.09;86.67;100064.21;111138;257;161353;-55
2024/03/16 11:43:55;;;;;;;;;36.50;30.00;;;;;16.06;86.24;100065.94;111213;257;39845;-54
2024/03/16 11:46:34;;;;;;;;;44.00;34.00;;;;;16.02;86.06;100064.36;111160;242;161351;-54
2024/03/16 11:49:11;;;;;;;;;40.25;32.00;;;;;16.00;85.97;100053.83;111294;257;40453;-54
2024/03/16 11:51:47;;;;;;;;;39.00;31.00;;;;;16.17;85.85;100051.60;111205;257;40477;-50
2024/03/16 11:54:25;;;;;;;;;38.50;30.25;;;;;16.28;85.19;100047.46;111192;243;161489;-51
2024/03/16 11:57:02;;;;;;;;;30.00;24.00;;;;;16.33;85.07;100046.89;111143;257;40670;-50
2024/03/16 11:59:38;;;;;;;;;27.00;22.33;;;;;16.28;84.48;100046.80;111145;242;162272;-53
2024/03/16 12:02:17;;;;;;;;;28.00;22.33;;;;;16.31;84.44;100047.05;111211;257;39446;-55